Albert, KS

8:23 PM CDT on August 20, 2014 (GMT -0500)
Great Bend Municipal | Change Station
CLOSE
Current Station
Airport
Location: Great Bend,
Elevation: 1886 ft
Nearby Weather Stations

Elev 1886 ft 38.34 °N, 98.86 °W | Updated 8 minutes ago

Clear
Clear
90 °F
Feels Like 90 °F
N
14
Wind Variable Wind from South

Today
High -- | Low -- °F
--% Chance of Precip.
Yesterday
High -- | Low -- °F
Precip. -- in
6:54 AM 8:23 PM
Waning Crescent, 18% visible
Pressure 29.76 in
Visibility 10.0 miles
Clouds Clear
Heat Index 90 °F
Dew Point 63 °F
Humidity 40%
Rainfall 0.00 in
Snow Depth Not available.
UV 0 out of 12
Pollen 11.30 out of 12
Air Quality Not available.
Flu Activity Not available.
METAR KGBD 210115Z AUTO 18012KT 10SM CLR 32/17 A2976 RMK AO1

More Conditions Fewer Conditions

Pressure 29.76 in
Visibility 10.0 miles
Clouds Clear
Heat Index 90 °F
Dew Point 63 °F
Humidity 40%
Rainfall 0.00 in
Snow Depth Not available.
UV 0 out of 12
Pollen 11.30 out of 12
Air Quality Not available.
Flu Activity Not available.
METAR KGBD 210115Z AUTO 18012KT 10SM CLR 32/17 A2976 RMK AO1

More Conditions Fewer Conditions

10-Day Weather Forecast

Almanac

Astronomy

Aug. 20, 2014 Rise Set
Actual Time 6:54 AM CDT 8:23 PM CDT
Civil Twilight 6:26 AM CDT 8:51 PM CDT
Nautical Twilight 5:53 AM CDT 9:24 PM CDT
Astronomical Twilight 5:18 AM CDT 9:59 PM CDT
Moon 2:37 AM CDT (8/20) 5:08 PM CDT (8/20)
Length of Visible Light 14h 24m
Length of Day
13h 28m
Tomorrow will be 2m 16s shorter.
Waning Crescent, 18% of the Moon is Illuminated
Today
Waning Crescent
Aug 25
New
Sep 2
First Quarter
Sep 8
Full
Sep 15
Last Quarter

Today's Extremes

State Highs State Lows

Community

WunderPhotos

Upload Photos

1,745,840 photos uploaded!

WunderBlogs® & News

Nearby

Snow Depth

Station Depth Elevation
No new snow has been reported.

Earthquake Activity

City Distance Mag. Time & Date
Medford, Oklahoma 128 miles 3.4 5:54 AM CDT
2014-08-16
Medford, Oklahoma 132 miles 2.5 7:09 AM CDT
2014-08-15
Helena, Oklahoma 132 miles 2.7 1:19 AM CDT
2014-08-14
Minimum magnitude displayed is 2.5.

Coastal Water Temperatures

Place Temperature
No Stations Reporting

Nearby Weather Stations